West Point, Nebraska
Current Conditions -  °F | °C
As of 2:54 AM on Friday 19 Dec 2014 (Local Time) from KTQE Reporting Station
Overcast Overcast  
Wind Chill: 24°   Ceiling: 800
Heat Index: 31°   Visibility: 7mi
Dew Point: 28°   Wind: 7mph
Humidity: 89%   Direction: 160°SSE
Pressure: 30.23"   Gusts: NA
Location:  41.84°N, 96.71°W
Report Text: KTQE 190854Z AUTO 16006KT 7SM OVC008 M01/M02 A3023 RMK AO2 SLP244 T10061022 55005
Loading
Personal Weather Stations






























Interactive Weather Map New forecast layout! Learn more

10-Day Weather Forecast

Advertisements
Track Severe Weather on mobile